Time;durP1;ratioP1;P1;durP2;ratioP2;P2;SDS_P1;SDS_P2;PMS_P1;PMS_P2;Temp;Humidity;BMP_temperature;BMP_pressure;BME280_temperature;BME280_humidity;BME280_pressure;Samples;Min_cycle;Max_cycle;Signal;HPM_P1;HPM_P2
2023/10/24 00:01:50;;;;;;;18.27;2.13;;;29.90;51.90;;;;;;5014995;28;20178;-71
2023/10/24 00:04:17;;;;;;;6.23;2.60;;;29.80;44.90;;;;;;5027476;28;20185;-74
2023/10/24 00:06:44;;;;;;;5.93;2.30;;;29.80;44.50;;;;;;5035161;28;20541;-72
2023/10/24 00:09:12;;;;;;;11.70;2.27;;;30.10;43.60;;;;;;5015657;28;20174;-71
2023/10/24 00:11:39;;;;;;;6.50;1.93;;;30.40;36.90;;;;;;5014804;28;20236;-74
2023/10/24 00:14:06;;;;;;;7.73;1.93;;;30.00;33.10;;;;;;5014242;28;20178;-73
2023/10/24 00:16:34;;;;;;;6.97;1.83;;;30.20;34.50;;;;;;5015168;28;20188;-72
2023/10/24 00:19:01;;;;;;;6.27;1.20;;;30.70;37.70;;;;;;5014888;28;20208;-72
2023/10/24 00:21:28;;;;;;;4.10;1.10;;;30.20;30.10;;;;;;5015100;28;20265;-73
2023/10/24 00:23:55;;;;;;;8.87;1.50;;;30.70;28.60;;;;;;5015962;28;20196;-71
2023/10/24 00:26:23;;;;;;;3.23;0.90;;;30.90;27.40;;;;;;4995496;28;20285;-72
2023/10/24 00:28:50;;;;;;;3.30;1.33;;;30.90;23.70;;;;;;5007496;28;20189;-73
2023/10/24 00:31:17;;;;;;;3.47;0.90;;;31.10;21.50;;;;;;5013988;28;20774;-74
2023/10/24 00:33:44;;;;;;;5.10;1.17;;;31.10;20.20;;;;;;5014821;28;20887;-72
2023/10/24 00:36:12;;;;;;;5.67;1.00;;;31.80;16.80;;;;;;5013599;28;20248;-73
2023/10/24 00:38:39;;;;;;;3.97;1.20;;;32.00;17.70;;;;;;5014698;28;20245;-71
2023/10/24 00:41:06;;;;;;;4.43;1.10;;;32.40;18.10;;;;;;5014815;28;20567;-73
2023/10/24 00:43:33;;;;;;;3.08;1.10;;;32.00;16.10;;;;;;5013809;28;20201;-73
2023/10/24 00:46:01;;;;;;;4.43;0.98;;;31.00;17.20;;;;;;5014270;28;20182;-72
2023/10/24 00:48:30;;;;;;;7.20;1.20;;;31.50;18.90;;;;;;5014643;28;20261;-72
2023/10/24 00:50:57;;;;;;;3.83;1.50;;;31.50;16.90;;;;;;5014026;28;20247;-72
2023/10/24 00:53:24;;;;;;;6.80;1.50;;;32.10;19.70;;;;;;5014422;28;20581;-71
2023/10/24 00:55:52;;;;;;;7.40;2.55;;;32.30;19.50;;;;;;5007580;28;20265;-72
2023/10/24 00:58:20;;;;;;;6.50;3.33;;;32.10;17.40;;;;;;5013894;28;20202;-73
2023/10/24 01:00:47;;;;;;;12.23;4.32;;;31.90;12.20;;;;;;5014346;28;20177;-72
2023/10/24 01:03:16;;;;;;;8.77;4.87;;;32.30;11.70;;;;;;5014090;28;20190;-73
2023/10/24 01:05:43;;;;;;;8.07;5.00;;;32.00;10.00;;;;;;5013521;28;20185;-72
2023/10/24 01:08:11;;;;;;;9.52;5.45;;;31.90;10.40;;;;;;5013143;28;20178;-72
2023/10/24 01:10:38;;;;;;;9.20;5.28;;;32.30;11.00;;;;;;5013880;28;20174;-72
2023/10/24 01:13:05;;;;;;;11.15;4.72;;;32.40;8.70;;;;;;5013658;28;20188;-72
2023/10/24 01:15:33;;;;;;;8.32;4.95;;;32.40;8.10;;;;;;5013841;28;20197;-72
2023/10/24 01:18:02;;;;;;;3.67;2.60;;;32.60;7.80;;;;;;5013776;28;20217;-73
2023/10/24 01:20:30;;;;;;;4.88;2.83;;;33.40;5.90;;;;;;5013285;28;20643;-73
2023/10/24 01:22:57;;;;;;;8.70;1.40;;;33.10;5.00;;;;;;5013769;28;20186;-73
2023/10/24 01:33:10;;;;;;;4.95;1.00;;;32.90;4.00;;;;;;5007326;28;20224;-72
2023/10/24 01:35:38;;;;;;;3.58;1.40;;;33.10;5.20;;;;;;5013129;28;20178;-71
2023/10/24 01:38:05;;;;;;;3.05;0.68;;;33.40;3.50;;;;;;5012338;28;20205;-70
2023/10/24 01:40:32;;;;;;;5.80;0.82;;;33.70;1.30;;;;;;5012719;28;20618;-72
2023/10/24 01:42:59;;;;;;;7.13;1.00;;;33.80;1.30;;;;;;5013005;28;20182;-73
2023/10/24 01:45:27;;;;;;;6.05;0.88;;;34.10;2.30;;;;;;5012322;28;20178;-73
2023/10/24 01:51:16;;;;;;;2.47;0.75;;;33.70;1.00;;;;;;5020957;28;20189;-73
2023/10/24 01:53:43;;;;;;;1.70;0.60;;;33.90;1.60;;;;;;5013170;28;20173;-72
2023/10/24 01:56:14;;;;;;;2.10;0.70;;;33.60;1.00;;;;;;5012112;28;20182;-72
2023/10/24 01:58:41;;;;;;;3.50;0.70;;;33.90;1.00;;;;;;5012690;28;20219;-72
2023/10/24 02:01:09;;;;;;;6.45;1.30;;;33.40;1.00;;;;;;5012235;28;20174;-73
2023/10/24 02:03:36;;;;;;;3.25;0.70;;;33.70;1.00;;;;;;5012349;28;20258;-72
2023/10/24 02:06:03;;;;;;;1.38;0.40;;;33.70;1.00;;;;;;5012749;28;20246;-73
2023/10/24 02:08:30;;;;;;;3.55;1.13;;;33.60;1.00;;;;;;5012103;28;20185;-72
2023/10/24 02:10:58;;;;;;;4.03;0.80;;;34.30;1.00;;;;;;5012121;28;20196;-73
2023/10/24 02:13:25;;;;;;;4.30;0.90;;;34.00;1.00;;;;;;5012522;28;20716;-74
2023/10/24 02:15:55;;;;;;;3.90;1.13;;;34.40;1.00;;;;;;5012228;28;20182;-72
2023/10/24 02:21:47;;;;;;;3.97;1.00;;;34.30;1.00;;;;;;5011774;28;20216;-72
2023/10/24 02:24:14;;;;;;;2.95;0.77;;;34.50;1.00;;;;;;5010273;28;20197;-72
2023/10/24 02:26:41;;;;;;;4.15;0.90;;;34.90;1.00;;;;;;5012005;28;20659;-71
2023/10/24 02:29:09;;;;;;;5.43;0.80;;;35.00;1.00;;;;;;5012070;28;20182;-71
2023/10/24 02:31:36;;;;;;;6.28;0.77;;;34.60;1.00;;;;;;5011352;28;20227;-72
2023/10/24 02:34:03;;;;;;;4.43;1.13;;;34.30;1.00;;;;;;5011349;28;20634;-71
2023/10/24 02:36:30;;;;;;;4.97;1.02;;;34.60;1.00;;;;;;5012197;28;20174;-72
2023/10/24 02:38:57;;;;;;;5.10;0.70;;;35.20;1.00;;;;;;5010183;28;20219;-72
2023/10/24 02:41:25;;;;;;;3.33;0.80;;;35.40;1.00;;;;;;5012285;28;20182;-72
2023/10/24 02:43:52;;;;;;;4.85;1.05;;;35.10;1.00;;;;;;5011342;28;20190;-71
2023/10/24 02:46:35;;;;;;;3.35;0.75;;;34.40;1.00;;;;;;4967727;28;20217;-73
2023/10/24 02:49:02;;;;;;;1.60;0.70;;;34.60;1.00;;;;;;5011800;28;20607;-71
2023/10/24 02:51:30;;;;;;;2.63;0.82;;;34.80;1.00;;;;;;5011849;28;20232;-71
2023/10/24 02:53:57;;;;;;;2.60;0.80;;;34.90;1.00;;;;;;5011250;28;20732;-71
2023/10/24 02:56:24;;;;;;;3.28;0.65;;;34.80;1.00;;;;;;5011535;28;20186;-71
2023/10/24 02:58:52;;;;;;;3.30;0.85;;;34.70;1.00;;;;;;5011454;28;20209;-70
2023/10/24 03:01:20;;;;;;;2.72;0.85;;;34.80;1.00;;;;;;5011215;28;20681;-71
2023/10/24 03:03:47;;;;;;;2.50;0.77;;;34.90;1.00;;;;;;5011448;28;20634;-72
2023/10/24 03:06:18;;;;;;;3.08;0.80;;;35.10;1.00;;;;;;5011870;28;20181;-72
2023/10/24 03:08:46;;;;;;;6.10;0.70;;;34.60;1.00;;;;;;5010719;28;20201;-72
2023/10/24 03:14:36;;;;;;;1.52;0.80;;;34.70;1.00;;;;;;5011036;28;20216;-72
2023/10/24 03:17:03;;;;;;;1.13;0.45;;;34.70;1.00;;;;;;5011170;28;20681;-72
2023/10/24 03:19:33;;;;;;;1.65;0.60;;;34.70;1.00;;;;;;5011580;28;20217;-72
2023/10/24 03:22:00;;;;;;;1.35;0.60;;;34.70;1.00;;;;;;5011459;28;20232;-74
2023/10/24 03:24:31;;;;;;;1.45;0.70;;;35.20;1.00;;;;;;5010620;28;20182;-73
2023/10/24 03:30:21;;;;;;;1.88;0.70;;;35.60;1.00;;;;;;5006858;28;20292;-71
2023/10/24 03:32:49;;;;;;;4.13;0.80;;;35.50;1.00;;;;;;5034986;28;20240;-72
2023/10/24 03:35:17;;;;;;;1.60;0.60;;;35.40;1.00;;;;;;5027493;28;20277;-72
2023/10/24 03:37:44;;;;;;;2.63;0.68;;;35.30;1.00;;;;;;5014705;28;20185;-72
2023/10/24 03:40:12;;;;;;;2.33;0.63;;;35.70;1.00;;;;;;5015320;28;20178;-72
2023/10/24 03:42:39;;;;;;;3.13;0.77;;;35.70;1.00;;;;;;5015186;28;20662;-72
2023/10/24 03:45:07;;;;;;;3.05;0.60;;;35.80;1.00;;;;;;5014757;28;20308;-72
2023/10/24 03:47:34;;;;;;;6.18;0.70;;;36.10;1.00;;;;;;5021120;28;20174;-72
2023/10/24 03:50:03;;;;;;;4.43;0.63;;;36.10;1.00;;;;;;5014880;28;20256;-72
2023/10/24 03:52:31;;;;;;;3.75;0.80;;;36.00;1.00;;;;;;5014612;28;20197;-72
2023/10/24 03:54:59;;;;;;;2.30;0.60;;;36.20;1.00;;;;;;5014991;28;20193;-73
2023/10/24 03:57:26;;;;;;;2.53;0.70;;;36.30;1.00;;;;;;5014661;28;20201;-72
2023/10/24 03:59:54;;;;;;;3.30;0.60;;;36.00;1.00;;;;;;5012443;28;20225;-72
2023/10/24 04:02:21;;;;;;;3.83;0.63;;;36.00;1.00;;;;;;5014739;28;20610;-72
2023/10/24 04:04:48;;;;;;;7.72;1.20;;;36.10;1.00;;;;;;5014640;28;20665;-71
2023/10/24 04:07:16;;;;;;;7.13;1.50;;;35.70;1.00;;;;;;5014801;28;20647;-72
2023/10/24 04:09:43;;;;;;;9.57;1.40;;;35.80;4.30;;;;;;5014244;28;20212;-72
2023/10/24 04:12:11;;;;;;;5.03;1.50;;;35.90;5.60;;;;;;5014175;28;20190;-72
2023/10/24 04:14:38;;;;;;;5.95;1.60;;;35.90;6.40;;;;;;5014001;28;20236;-72
2023/10/24 04:17:05;;;;;;;4.70;1.25;;;35.50;9.50;;;;;;5014614;28;20182;-72
2023/10/24 04:19:33;;;;;;;10.90;1.95;;;35.00;8.00;;;;;;5013224;28;20268;-73
2023/10/24 04:22:02;;;;;;;6.47;1.55;;;35.00;7.80;;;;;;5013825;28;20639;-72
2023/10/24 04:24:29;;;;;;;5.70;1.90;;;35.10;9.60;;;;;;5014557;28;20702;-73
2023/10/24 04:26:57;;;;;;;8.98;2.10;;;35.00;12.10;;;;;;5014025;28;20182;-72
2023/10/24 04:29:24;;;;;;;9.93;1.60;;;35.30;10.10;;;;;;5013796;28;20236;-73
2023/10/24 04:31:52;;;;;;;6.97;1.67;;;35.20;9.10;;;;;;5013804;28;20226;-72
2023/10/24 04:34:20;;;;;;;3.95;1.65;;;35.10;9.40;;;;;;5014040;28;20174;-72
2023/10/24 04:36:47;;;;;;;5.38;1.40;;;34.90;13.60;;;;;;5013780;28;20261;-72
2023/10/24 04:39:14;;;;;;;7.70;2.25;;;34.50;15.30;;;;;;5012769;28;20252;-71
2023/10/24 04:41:42;;;;;;;12.93;1.95;;;34.40;17.10;;;;;;5013741;28;20189;-72
2023/10/24 04:44:09;;;;;;;8.35;2.15;;;34.10;15.40;;;;;;5013202;28;20178;-71
2023/10/24 04:46:36;;;;;;;5.93;1.90;;;34.10;17.20;;;;;;5013442;28;20206;-71
2023/10/24 04:49:03;;;;;;;9.82;2.08;;;34.20;15.40;;;;;;5014120;28;20240;-72
2023/10/24 04:51:31;;;;;;;4.45;1.80;;;34.10;14.40;;;;;;5013737;28;20205;-71
2023/10/24 04:53:58;;;;;;;9.00;2.10;;;34.00;15.80;;;;;;5012055;28;20185;-72
2023/10/24 05:02:32;;;;;;;9.35;3.17;;;33.90;23.20;;;;;;5010295;28;20201;-68
2023/10/24 05:05:00;;;;;;;14.63;4.00;;;33.70;25.20;;;;;;5013526;28;20228;-69
2023/10/24 05:07:27;;;;;;;7.45;3.72;;;33.70;24.30;;;;;;5013011;28;20634;-69
2023/10/24 05:09:54;;;;;;;7.20;3.30;;;33.50;26.00;;;;;;5013551;28;20185;-71
2023/10/24 05:12:21;;;;;;;9.05;2.95;;;33.50;27.00;;;;;;5011432;28;20182;-71
2023/10/24 05:14:49;;;;;;;5.90;3.08;;;33.30;28.20;;;;;;5012913;28;20227;-69
2023/10/24 05:17:16;;;;;;;7.47;3.40;;;33.40;31.60;;;;;;5013535;28;20185;-70
2023/10/24 05:19:44;;;;;;;6.65;3.05;;;33.40;31.80;;;;;;5011457;28;20220;-69
2023/10/24 05:22:12;;;;;;;7.15;2.95;;;33.40;31.70;;;;;;5012180;28;20186;-69
2023/10/24 05:24:39;;;;;;;13.85;3.45;;;33.40;32.20;;;;;;5010642;28;20182;-68
2023/10/24 05:27:06;;;;;;;8.77;2.95;;;33.10;33.00;;;;;;5013038;28;20201;-68
2023/10/24 05:29:37;;;;;;;10.18;3.50;;;33.00;33.60;;;;;;5012661;28;20177;-68
2023/10/24 05:32:04;;;;;;;8.43;3.65;;;32.90;35.90;;;;;;5013089;28;20391;-68
2023/10/24 05:34:31;;;;;;;8.57;3.60;;;32.70;38.10;;;;;;5013112;28;20206;-68
2023/10/24 05:36:59;;;;;;;9.90;3.17;;;32.50;38.30;;;;;;5012543;28;20773;-69
2023/10/24 05:39:29;;;;;;;15.07;2.90;;;32.30;39.90;;;;;;5013074;28;20723;-69
2023/10/24 05:41:56;;;;;;;7.13;2.95;;;32.00;43.20;;;;;;5012387;28;20178;-68
2023/10/24 05:44:24;;;;;;;12.25;3.58;;;31.90;43.00;;;;;;5012537;28;20324;-69
2023/10/24 05:46:52;;;;;;;8.63;3.42;;;31.70;45.10;;;;;;5012660;28;20205;-70
2023/10/24 05:49:19;;;;;;;13.13;3.20;;;31.90;47.90;;;;;;5012782;28;20185;-68
2023/10/24 05:51:47;;;;;;;10.23;3.20;;;31.70;47.70;;;;;;5013743;28;20188;-68
2023/10/24 05:54:14;;;;;;;11.60;3.10;;;31.60;51.00;;;;;;5013115;28;20192;-68
2023/10/24 05:56:41;;;;;;;12.15;2.63;;;31.40;52.80;;;;;;4974949;28;20186;-70
2023/10/24 05:59:08;;;;;;;14.43;3.45;;;31.60;53.20;;;;;;5011510;28;20220;-68
2023/10/24 06:01:36;;;;;;;11.93;3.23;;;31.40;56.10;;;;;;5008982;28;20539;-69
2023/10/24 06:09:35;;;;;;;9.53;3.00;;;30.80;68.40;;;;;;5008978;28;20295;-69
2023/10/24 06:12:02;;;;;;;12.03;4.07;;;30.70;71.60;;;;;;5003495;28;20240;-69
2023/10/24 06:14:30;;;;;;;11.00;3.37;;;30.90;72.80;;;;;;5012281;28;20214;-69
2023/10/24 06:16:57;;;;;;;9.63;3.40;;;31.20;72.30;;;;;;5012474;28;20186;-69
2023/10/24 06:19:24;;;;;;;10.65;3.13;;;31.20;70.40;;;;;;5010985;28;20326;-67
2023/10/24 06:21:52;;;;;;;8.87;2.90;;;31.20;71.50;;;;;;5012354;28;20188;-67
2023/10/24 06:24:19;;;;;;;11.07;3.03;;;31.30;74.50;;;;;;5012158;28;20182;-67
2023/10/24 06:26:46;;;;;;;12.70;3.47;;;31.40;74.90;;;;;;5011590;28;20170;-70
2023/10/24 06:29:14;;;;;;;11.75;3.80;;;31.50;73.30;;;;;;5010343;28;20638;-71
2023/10/24 06:31:41;;;;;;;10.25;3.72;;;31.60;71.30;;;;;;5012010;28;20190;-71
2023/10/24 06:34:08;;;;;;;11.20;3.28;;;31.30;73.00;;;;;;5011652;28;20182;-70
2023/10/24 06:36:36;;;;;;;15.13;3.37;;;31.10;76.80;;;;;;5011515;28;20217;-70
2023/10/24 06:39:04;;;;;;;9.52;3.72;;;31.00;80.00;;;;;;5011583;28;20260;-72
2023/10/24 06:41:32;;;;;;;8.80;3.22;;;31.10;83.70;;;;;;5011543;28;20203;-69
2023/10/24 06:43:59;;;;;;;9.90;3.30;;;31.10;83.50;;;;;;5011699;28;20554;-71
2023/10/24 06:46:27;;;;;;;8.10;3.10;;;31.00;82.60;;;;;;5011867;28;20514;-70
2023/10/24 06:48:54;;;;;;;7.70;2.97;;;31.00;81.20;;;;;;5014421;28;20181;-70
2023/10/24 06:51:22;;;;;;;11.27;2.97;;;31.10;85.00;;;;;;5031335;28;20541;-70
2023/10/24 06:53:49;;;;;;;11.95;3.80;;;31.20;81.10;;;;;;5021026;28;20509;-70
2023/10/24 06:56:16;;;;;;;14.32;3.13;;;31.20;82.70;;;;;;5010928;28;20225;-70
2023/10/24 06:58:44;;;;;;;7.30;3.45;;;30.80;83.40;;;;;;5010917;28;20695;-70
2023/10/24 07:01:11;;;;;;;12.27;4.03;;;30.80;86.80;;;;;;5005478;28;20193;-70
2023/10/24 07:03:38;;;;;;;10.45;3.55;;;30.90;86.70;;;;;;5009593;28;20256;-70
2023/10/24 07:06:05;;;;;;;10.20;4.07;;;30.70;90.10;;;;;;5010973;28;20188;-71
2023/10/24 07:08:33;;;;;;;15.47;3.93;;;30.40;90.40;;;;;;5011023;28;20192;-70
2023/10/24 07:11:00;;;;;;;11.98;3.70;;;30.50;91.40;;;;;;5009729;28;20382;-69
2023/10/24 07:13:29;;;;;;;15.40;3.67;;;30.30;91.70;;;;;;5011579;28;20553;-71
2023/10/24 07:15:56;;;;;;;14.43;4.00;;;30.30;94.00;;;;;;5011437;28;20185;-70
2023/10/24 07:18:23;;;;;;;8.60;3.70;;;30.00;95.00;;;;;;5011003;28;20209;-70
2023/10/24 07:20:56;;;;;;;10.32;4.13;;;30.00;96.10;;;;;;5011355;28;20188;-70
2023/10/24 07:23:24;;;;;;;10.10;3.80;;;29.90;97.80;;;;;;5011198;28;20193;-70
2023/10/24 07:25:57;;;;;;;10.33;3.87;;;29.70;99.40;;;;;;5010687;28;20186;-71
2023/10/24 07:28:24;;;;;;;14.37;3.87;;;29.50;99.90;;;;;;5011628;28;20186;-70
2023/10/24 07:30:54;;;;;;;11.03;3.83;;;29.50;99.90;;;;;;5011410;28;20182;-70
2023/10/24 07:33:22;;;;;;;11.63;3.27;;;29.50;99.90;;;;;;5010617;28;20595;-69
2023/10/24 07:35:50;;;;;;;10.53;3.70;;;29.50;99.90;;;;;;5011010;28;20611;-69
2023/10/24 07:38:19;;;;;;;13.27;3.70;;;29.30;99.90;;;;;;5011474;28;20252;-72
2023/10/24 07:40:47;;;;;;;15.47;4.10;;;29.00;99.90;;;;;;5011127;28;20186;-71
2023/10/24 07:43:15;;;;;;;12.00;4.43;;;28.80;99.90;;;;;;5011279;28;20186;-71
2023/10/24 07:45:42;;;;;;;8.93;3.67;;;28.60;99.90;;;;;;5010885;28;20683;-70
2023/10/24 07:48:09;;;;;;;12.67;4.47;;;28.50;99.90;;;;;;5011085;28;20244;-72
2023/10/24 07:50:37;;;;;;;19.00;4.40;;;28.20;99.90;;;;;;5011418;28;20189;-73
2023/10/24 07:53:04;;;;;;;12.20;4.87;;;28.10;99.90;;;;;;5011463;28;20208;-73
2023/10/24 07:55:31;;;;;;;11.63;4.53;;;27.80;99.90;;;;;;5010840;28;20186;-71
2023/10/24 07:57:59;;;;;;;9.90;3.70;;;27.60;99.90;;;;;;5010910;28;20204;-71
2023/10/24 08:00:26;;;;;;;13.00;4.27;;;27.40;99.90;;;;;;5011785;28;20174;-71
2023/10/24 08:02:53;;;;;;;10.80;4.40;;;27.20;99.90;;;;;;5010738;28;20273;-69
2023/10/24 08:05:21;;;;;;;9.87;4.73;;;27.10;99.90;;;;;;5011066;28;20186;-70
2023/10/24 08:07:48;;;;;;;15.90;4.87;;;26.90;99.90;;;;;;5011367;28;20647;-71
2023/10/24 08:10:16;;;;;;;13.90;4.30;;;26.80;99.90;;;;;;5009967;28;20221;-71
2023/10/24 08:12:43;;;;;;;13.17;4.17;;;26.70;99.90;;;;;;5011303;28;20177;-70
2023/10/24 08:15:13;;;;;;;14.27;5.17;;;26.60;99.90;;;;;;5010877;28;20248;-70
2023/10/24 08:17:41;;;;;;;15.37;4.57;;;26.50;99.90;;;;;;5012720;28;20182;-69
2023/10/24 08:20:08;;;;;;;15.33;4.53;;;26.40;99.90;;;;;;5014753;28;20232;-69
2023/10/24 08:22:36;;;;;;;11.23;4.37;;;26.40;99.90;;;;;;5014173;28;20178;-68
2023/10/24 08:25:03;;;;;;;12.70;4.17;;;26.30;99.90;;;;;;5013829;28;20186;-69
2023/10/24 08:27:31;;;;;;;20.63;4.57;;;26.20;99.90;;;;;;5014488;28;20174;-68
2023/10/24 08:29:58;;;;;;;12.93;4.47;;;26.10;99.90;;;;;;5014186;28;20182;-71
2023/10/24 08:32:25;;;;;;;11.63;4.47;;;26.00;99.90;;;;;;5013877;28;20213;-71
2023/10/24 08:34:53;;;;;;;14.67;4.67;;;25.90;99.90;;;;;;5013186;28;20607;-69
2023/10/24 08:37:20;;;;;;;16.57;5.00;;;25.70;99.90;;;;;;5015959;28;20288;-69
2023/10/24 08:39:48;;;;;;;14.97;4.20;;;25.60;99.90;;;;;;5026473;28;20212;-71
2023/10/24 08:42:16;;;;;;;17.30;4.77;;;25.40;99.90;;;;;;5033949;28;20185;-71
2023/10/24 08:44:45;;;;;;;12.50;4.30;;;25.40;99.90;;;;;;5033891;28;20200;-70
2023/10/24 08:47:13;;;;;;;14.13;5.10;;;25.30;99.90;;;;;;5031946;28;20799;-70
2023/10/24 08:53:03;;;;;;;17.73;5.07;;;25.20;99.90;;;;;;5013393;28;20196;-69
2023/10/24 08:55:31;;;;;;;14.07;4.47;;;25.10;99.90;;;;;;5013498;28;20177;-70
2023/10/24 08:58:02;;;;;;;17.30;5.00;;;25.10;99.90;;;;;;5015423;28;20267;-68
2023/10/24 09:00:29;;;;;;;13.27;5.53;;;25.10;99.90;;;;;;5015081;28;20224;-69
2023/10/24 09:03:00;;;;;;;14.67;5.10;;;24.90;99.90;;;;;;5015082;28;20186;-69
2023/10/24 09:05:28;;;;;;;19.97;5.30;;;24.80;99.90;;;;;;5015259;28;20248;-70
2023/10/24 09:07:56;;;;;;;18.07;5.27;;;24.70;99.90;;;;;;5014598;28;20186;-68
2023/10/24 09:10:23;;;;;;;17.00;5.30;;;24.60;99.90;;;;;;5015220;28;20226;-71
2023/10/24 09:12:54;;;;;;;17.93;5.63;;;24.60;99.90;;;;;;5015018;28;20178;-69
2023/10/24 09:15:21;;;;;;;16.33;5.17;;;24.50;99.90;;;;;;5014662;28;20627;-67
2023/10/24 09:17:49;;;;;;;16.17;4.30;;;24.40;99.90;;;;;;5015172;28;20178;-70
2023/10/24 09:20:19;;;;;;;15.40;4.97;;;24.40;99.90;;;;;;5015207;28;20192;-71
2023/10/24 09:22:46;;;;;;;14.73;5.10;;;24.40;99.90;;;;;;5015059;28;20174;-69
2023/10/24 09:25:14;;;;;;;15.63;5.10;;;24.30;99.90;;;;;;5014971;28;20587;-70
2023/10/24 09:27:41;;;;;;;21.00;6.20;;;24.20;99.90;;;;;;5014940;28;20273;-70
2023/10/24 09:30:12;;;;;;;17.67;5.27;;;24.10;99.90;;;;;;5014382;28;20185;-69
2023/10/24 09:32:44;;;;;;;13.63;5.77;;;24.10;99.90;;;;;;5014962;28;20174;-69
2023/10/24 09:35:11;;;;;;;17.87;5.60;;;24.00;99.90;;;;;;5014556;28;20647;-71
2023/10/24 09:37:49;;;;;;;15.80;5.13;;;23.90;99.90;;;;;;5008999;28;20600;-71
2023/10/24 09:40:16;;;;;;;11.37;4.97;;;23.80;99.90;;;;;;5008326;28;20229;-71
2023/10/24 09:42:45;;;;;;;11.17;4.87;;;23.70;99.90;;;;;;5015083;28;20540;-69
2023/10/24 09:45:14;;;;;;;12.87;5.07;;;23.70;99.90;;;;;;5014606;28;20186;-69
2023/10/24 09:47:43;;;;;;;14.97;5.70;;;23.60;99.90;;;;;;5014709;28;20178;-69
2023/10/24 09:50:11;;;;;;;16.17;4.90;;;23.60;99.90;;;;;;5014751;28;20526;-70
2023/10/24 09:52:40;;;;;;;14.63;5.57;;;23.50;99.90;;;;;;5014456;28;20178;-71
2023/10/24 09:55:08;;;;;;;15.00;5.73;;;23.50;99.90;;;;;;5013710;28;20901;-71
2023/10/24 09:57:36;;;;;;;15.83;5.20;;;23.30;99.90;;;;;;5014493;28;20567;-70
2023/10/24 10:00:10;;;;;;;22.73;5.70;;;23.30;99.90;;;;;;5014242;28;20217;-70
2023/10/24 10:02:41;;;;;;;13.77;5.00;;;23.20;99.90;;;;;;5013948;28;20181;-70
2023/10/24 10:05:09;;;;;;;19.80;5.90;;;23.10;99.90;;;;;;5013736;28;20650;-70
2023/10/24 10:07:38;;;;;;;15.63;6.03;;;23.00;99.90;;;;;;5014226;28;20257;-69
2023/10/24 10:10:08;;;;;;;19.67;6.30;;;22.90;99.90;;;;;;5013995;28;20280;-69
2023/10/24 10:12:36;;;;;;;11.00;5.43;;;22.90;99.90;;;;;;5014169;28;20186;-71
2023/10/24 10:15:36;;;;;;;21.77;6.60;;;22.80;99.90;;;;;;5022521;28;20205;-68
2023/10/24 10:18:17;;;;;;;15.20;6.03;;;22.70;99.90;;;;;;5033738;28;20169;-71
2023/10/24 10:20:48;;;;;;;14.43;5.83;;;22.60;99.90;;;;;;5034123;28;20176;-70
2023/10/24 10:23:53;;;;;;;18.67;7.00;;;22.50;99.90;;;;;;5033700;28;20189;-69
2023/10/24 10:26:57;;;;;;;17.27;5.73;;;22.40;99.90;;;;;;5010498;28;20675;-70
2023/10/24 10:29:41;;;;;;;20.37;6.27;;;22.30;99.90;;;;;;5025369;28;20178;-71
2023/10/24 10:32:26;;;;;;;17.67;6.27;;;22.40;99.90;;;;;;5013622;28;20182;-69
2023/10/24 10:34:55;;;;;;;17.27;6.73;;;22.40;99.90;;;;;;5013780;28;20235;-70
2023/10/24 10:37:23;;;;;;;16.73;6.23;;;22.40;99.90;;;;;;4990735;28;20173;-70
2023/10/24 10:40:15;;;;;;;16.13;6.37;;;22.40;99.90;;;;;;5004919;28;20622;-71
2023/10/24 10:42:47;;;;;;;17.27;6.23;;;22.30;99.90;;;;;;5011815;28;20185;-69
2023/10/24 10:45:40;;;;;;;18.67;7.03;;;22.20;99.90;;;;;;5011502;28;20189;-70
2023/10/24 10:48:08;;;;;;;15.37;6.07;;;22.10;99.90;;;;;;5010086;28;20193;-69
2023/10/24 10:50:39;;;;;;;13.40;6.37;;;22.10;99.90;;;;;;5010961;28;20626;-69
2023/10/24 10:53:17;;;;;;;17.97;5.97;;;22.10;99.90;;;;;;5010254;28;20236;-69
2023/10/24 10:56:11;;;;;;;20.67;6.43;;;22.10;99.90;;;;;;5011229;28;20188;-70
2023/10/24 10:58:53;;;;;;;19.37;7.00;;;22.00;99.90;;;;;;5011840;28;20205;-69
2023/10/24 11:01:36;;;;;;;13.27;6.40;;;22.00;99.90;;;;;;5003106;28;20196;-69
2023/10/24 11:04:14;;;;;;;13.93;5.90;;;21.90;99.90;;;;;;5010337;28;20201;-69
2023/10/24 11:07:10;;;;;;;16.50;6.87;;;21.80;99.90;;;;;;5010354;28;20666;-71
2023/10/24 11:09:39;;;;;;;17.63;6.07;;;21.80;99.90;;;;;;5001604;28;20205;-70
2023/10/24 11:12:25;;;;;;;17.07;5.73;;;21.70;99.90;;;;;;5011392;28;20189;-70
2023/10/24 11:15:13;;;;;;;17.17;6.50;;;21.60;99.90;;;;;;5009185;28;20602;-70
2023/10/24 11:17:41;;;;;;;19.53;6.80;;;21.50;99.90;;;;;;5011345;28;20201;-70
2023/10/24 11:20:10;;;;;;;15.80;7.07;;;21.50;99.90;;;;;;5011499;28;20221;-70
2023/10/24 11:22:40;;;;;;;20.03;7.20;;;21.50;99.90;;;;;;5010677;28;20174;-69
2023/10/24 11:25:18;;;;;;;18.60;7.10;;;21.40;99.90;;;;;;5009836;28;20597;-68
2023/10/24 11:27:48;;;;;;;14.73;6.70;;;21.40;99.90;;;;;;5009921;28;20186;-71
2023/10/24 11:30:16;;;;;;;16.97;7.03;;;21.20;99.90;;;;;;5009859;28;20190;-70
2023/10/24 11:32:44;;;;;;;19.23;6.53;;;21.20;99.90;;;;;;5011552;28;20178;-70
2023/10/24 11:35:11;;;;;;;22.93;6.73;;;21.10;99.90;;;;;;5010986;28;20194;-71
2023/10/24 11:37:39;;;;;;;19.07;6.70;;;20.90;99.90;;;;;;5010282;28;20182;-70
2023/10/24 11:40:07;;;;;;;20.00;7.13;;;20.90;99.90;;;;;;5010725;28;20214;-69
2023/10/24 11:42:34;;;;;;;19.40;7.17;;;20.80;99.90;;;;;;5011586;28;20623;-68
2023/10/24 11:45:02;;;;;;;24.37;7.57;;;20.70;99.90;;;;;;5010803;28;20197;-70
2023/10/24 11:47:29;;;;;;;17.07;6.37;;;20.70;99.90;;;;;;5011112;28;20217;-70
2023/10/24 11:49:57;;;;;;;21.00;7.07;;;20.70;99.90;;;;;;5010321;28;20542;-71
2023/10/24 11:52:25;;;;;;;19.67;6.30;;;20.60;99.90;;;;;;5011689;28;20182;-68
2023/10/24 11:54:53;;;;;;;23.57;7.47;;;20.60;99.90;;;;;;5004206;28;20240;-68
2023/10/24 11:57:25;;;;;;;14.73;6.40;;;20.50;99.90;;;;;;5016198;28;20201;-70
2023/10/24 11:59:53;;;;;;;19.40;7.13;;;20.50;99.90;;;;;;5016290;28;20571;-71
2023/10/24 12:02:22;;;;;;;23.03;7.27;;;20.40;99.90;;;;;;5016370;28;20549;-71
2023/10/24 12:04:50;;;;;;;20.63;7.00;;;20.30;99.90;;;;;;5016111;28;20515;-68
2023/10/24 12:07:18;;;;;;;20.13;7.17;;;20.30;99.90;;;;;;5016095;28;20209;-69
2023/10/24 12:09:45;;;;;;;27.43;8.43;;;20.30;99.90;;;;;;5016081;28;20221;-70
2023/10/24 12:12:13;;;;;;;18.33;7.77;;;20.20;99.90;;;;;;5016145;28;20200;-70
2023/10/24 12:14:42;;;;;;;20.90;7.00;;;20.20;99.90;;;;;;5016035;28;20196;-69
2023/10/24 12:17:10;;;;;;;19.97;7.40;;;20.10;99.90;;;;;;5002961;28;20261;-69
2023/10/24 12:19:38;;;;;;;19.73;8.17;;;20.10;99.90;;;;;;5015776;28;20718;-69
2023/10/24 12:22:06;;;;;;;21.37;7.90;;;20.10;99.90;;;;;;5016378;28;20637;-69
2023/10/24 12:24:33;;;;;;;19.87;7.60;;;20.00;99.90;;;;;;5014889;28;20233;-69
2023/10/24 12:27:00;;;;;;;17.47;6.47;;;19.90;99.90;;;;;;5015434;28;20183;-70
2023/10/24 12:29:28;;;;;;;19.67;7.27;;;19.80;99.90;;;;;;5015888;28;20193;-69
2023/10/24 12:31:55;;;;;;;19.27;7.53;;;19.80;99.90;;;;;;5015936;28;20537;-70
2023/10/24 12:34:28;;;;;;;16.57;7.37;;;19.80;99.90;;;;;;5015810;28;20275;-70
2023/10/24 12:37:02;;;;;;;20.40;7.37;;;19.70;99.90;;;;;;5016080;28;20177;-70
2023/10/24 12:39:29;;;;;;;16.43;6.60;;;19.70;99.90;;;;;;5015465;28;20626;-69
2023/10/24 12:41:56;;;;;;;24.13;7.90;;;19.60;99.90;;;;;;5015200;28;20261;-69
2023/10/24 12:44:24;;;;;;;18.57;7.37;;;19.70;99.90;;;;;;5014137;28;20188;-69
2023/10/24 12:46:51;;;;;;;16.17;6.87;;;19.60;99.90;;;;;;5015448;28;20284;-69
2023/10/24 12:49:18;;;;;;;21.07;7.57;;;19.60;99.90;;;;;;5015234;28;20239;-68
2023/10/24 12:51:46;;;;;;;18.53;7.20;;;19.50;99.90;;;;;;5015975;28;20182;-68
2023/10/24 12:54:13;;;;;;;19.30;7.83;;;19.50;99.90;;;;;;5015280;28;20186;-68
2023/10/24 12:56:40;;;;;;;14.60;7.53;;;19.40;99.90;;;;;;5015429;28;20290;-69
2023/10/24 12:59:08;;;;;;;28.30;7.67;;;19.40;99.90;;;;;;5015088;28;20222;-69
2023/10/24 13:01:35;;;;;;;26.80;7.47;;;19.40;99.90;;;;;;5015617;28;20605;-69
2023/10/24 13:04:02;;;;;;;20.57;7.60;;;19.30;99.90;;;;;;5013863;28;20668;-69
2023/10/24 13:06:33;;;;;;;19.13;7.80;;;19.30;99.90;;;;;;5014253;28;20228;-69
2023/10/24 13:09:01;;;;;;;24.70;7.33;;;19.30;99.90;;;;;;5014853;28;20341;-69
2023/10/24 13:11:28;;;;;;;16.17;7.10;;;19.40;99.90;;;;;;5014944;28;20229;-69
2023/10/24 13:13:55;;;;;;;19.13;8.03;;;19.30;99.90;;;;;;5014855;28;20191;-69
2023/10/24 13:16:23;;;;;;;16.30;7.70;;;19.30;99.90;;;;;;5015177;28;20192;-69
2023/10/24 13:18:50;;;;;;;18.80;7.53;;;19.30;99.90;;;;;;5014983;28;20256;-69
2023/10/24 13:21:20;;;;;;;16.03;6.83;;;19.30;99.90;;;;;;5015049;28;20232;-68
2023/10/24 13:23:47;;;;;;;16.03;7.70;;;19.10;99.90;;;;;;5014661;28;20268;-68
2023/10/24 13:26:15;;;;;;;21.80;7.67;;;19.20;99.90;;;;;;5014570;28;20177;-69
2023/10/24 13:28:42;;;;;;;15.67;7.50;;;19.10;99.90;;;;;;5013390;28;20273;-69